Date,TemperatureHighF,TemperatureAvgF,TemperatureLowF,DewpointHighF,DewpointAvgF,DewpointLowF,HumidityHigh,HumidityAvg,HumidityLow,PressureMaxIn,PressureMinIn,WindSpeedMaxMPH,WindSpeedAvgMPH,GustSpeedMaxMPH,PrecipitationSumIn
2013-2-1,27.0,21.2,19.0,24.0,16.5,2.0,96,83,46,0.00,40.00,0,-999,0,0.00
2013-2-2,36.0,25.6,18.0,10.0,1.2,-15.0,51,35,14,0.00,40.00,0,-999,0,0.00
2013-2-3,33.0,27.4,21.0,8.0,-6.5,-23.0,41,23,9,0.00,40.00,0,-999,0,0.00
2013-2-4,30.0,24.6,20.0,11.0,5.6,1.0,55,43,35,0.00,40.00,0,-999,0,0.00
2013-2-5,41.0,31.5,24.0,18.0,10.5,3.0,62,42,23,0.00,40.00,0,-999,0,0.00
2013-2-6,31.0,24.0,16.0,17.0,6.8,-18.0,81,49,19,0.00,40.00,0,-999,0,0.00
2013-2-7,31.0,22.1,16.0,9.0,-6.6,-20.0,67,29,14,0.00,40.00,0,-999,0,0.00
2013-2-8,24.0,18.8,13.0,18.0,13.3,9.0,94,79,68,0.00,40.00,0,-999,0,0.00
2013-2-9,19.0,12.3,8.0,14.0,8.4,3.0,92,83,63,0.00,40.00,0,-999,0,0.00
2013-2-10,17.0,9.2,5.0,11.0,5.8,2.0,89,85,76,0.00,40.00,0,-999,0,0.00
2013-2-11,15.0,6.4,1.0,7.0,1.6,-6.0,90,80,63,0.00,40.00,0,-999,0,0.00
2013-2-12,16.0,9.2,2.0,13.0,6.4,-2.0,93,88,76,0.00,40.00,0,-999,0,0.00
2013-2-13,24.0,17.6,12.0,20.0,15.2,11.0,95,90,73,0.00,40.00,0,-999,0,0.00
2013-2-14,25.0,18.1,14.0,17.0,12.3,4.0,95,79,51,0.00,40.00,0,-999,0,0.00
2013-2-15,30.0,19.0,12.0,16.0,10.1,2.0,93,70,38,0.00,40.00,0,-999,0,0.00
2013-2-16,39.0,29.7,23.0,12.0,2.8,-11.0,47,32,16,0.00,40.00,0,-999,0,0.00
2013-2-17,31.0,21.6,8.0,17.0,4.9,-8.0,87,53,18,0.00,40.00,0,-999,0,0.00
2013-2-18,25.0,14.4,6.0,9.0,-1.4,-22.0,88,55,12,0.00,40.00,0,-999,0,0.00
2013-2-19,29.0,21.5,18.0,8.0,2.6,-8.0,55,44,26,0.00,40.00,0,-999,0,0.00
2013-2-20,27.0,19.5,15.0,17.0,13.6,5.0,94,78,53,0.00,40.00,0,-999,0,0.00
2013-2-21,19.0,11.4,5.0,13.0,7.7,1.0,93,85,68,0.00,40.00,0,-999,0,0.00
2013-2-22,16.0,9.8,4.0,8.0,4.3,0.0,86,78,59,0.00,40.00,0,-999,0,0.00
2013-2-23,21.0,11.8,5.0,16.0,8.9,3.0,92,87,77,0.00,40.00,0,-999,0,0.00
2013-2-24,17.0,8.7,5.0,12.0,5.5,2.0,89,86,76,0.00,40.00,0,-999,0,0.00
2013-2-25,28.0,14.6,4.0,12.0,4.0,-4.0,87,63,46,0.00,40.00,0,-999,0,0.00
2013-2-26,15.0,8.0,3.0,8.0,3.7,-1.0,89,82,61,0.00,40.00,0,-999,0,0.00
2013-2-27,20.0,10.3,2.0,5.0,-0.6,-7.0,87,62,33,0.00,40.00,0,-999,0,0.00
2013-2-28,25.0,19.4,14.0,19.0,7.1,-2.0,85,58,44,0.00,40.00,0,-999,0,0.00